createdAt,value
2023-03-20T00:02:21.884Z,5.57
2023-03-20T00:04:49.645Z,5.13
2023-03-20T00:07:17.222Z,5.20
2023-03-20T00:09:45.194Z,5.50
2023-03-20T00:12:26.475Z,5.13
2023-03-20T00:14:54.489Z,5.53
2023-03-20T00:17:22.296Z,5.47
2023-03-20T00:19:50.058Z,5.30
2023-03-20T00:22:17.524Z,5.93
2023-03-20T00:24:45.004Z,5.93
2023-03-20T00:27:15.017Z,5.30
2023-03-20T00:29:43.015Z,5.00
2023-03-20T00:32:13.264Z,5.50
2023-03-20T00:34:43.764Z,4.90
2023-03-20T00:37:13.759Z,6.53
2023-03-20T00:39:41.845Z,5.73
2023-03-20T00:42:22.451Z,5.53
2023-03-20T00:44:54.172Z,5.37
2023-03-20T00:47:25.623Z,5.50
2023-03-20T00:49:54.782Z,4.67
2023-03-20T00:52:23.302Z,5.57
2023-03-20T00:54:52.635Z,5.43
2023-03-20T00:57:27.948Z,5.37
2023-03-20T01:00:06.737Z,5.37
2023-03-20T01:02:34.544Z,5.40
2023-03-20T01:05:03.856Z,5.30
2023-03-20T01:07:31.600Z,5.13
2023-03-20T01:09:59.090Z,4.70
2023-03-20T01:12:26.869Z,5.30
2023-03-20T01:14:57.513Z,4.93
2023-03-20T01:17:27.759Z,4.73
2023-03-20T01:19:55.389Z,5.30
2023-03-20T01:22:23.063Z,4.67
2023-03-20T01:24:50.613Z,4.73
2023-03-20T01:27:20.365Z,4.70
2023-03-20T01:29:48.256Z,5.20
2023-03-20T01:32:18.404Z,4.43
2023-03-20T01:34:49.229Z,4.83
2023-03-20T01:37:34.988Z,5.60
2023-03-20T01:40:04.693Z,4.50
2023-03-20T01:42:34.857Z,4.63
2023-03-20T01:45:10.138Z,5.00
2023-03-20T01:47:37.836Z,4.47
2023-03-20T01:50:24.103Z,4.83
2023-03-20T01:53:14.578Z,4.67
2023-03-20T01:55:48.896Z,4.73
2023-03-20T01:58:22.543Z,4.47
2023-03-20T02:00:50.193Z,4.80
2023-03-20T02:03:20.650Z,5.03
2023-03-20T02:06:09.194Z,4.67
2023-03-20T02:09:02.863Z,4.13
2023-03-20T02:11:38.295Z,4.53
2023-03-20T02:14:06.870Z,4.70
2023-03-20T02:16:45.851Z,4.63
2023-03-20T02:19:47.265Z,4.83
2023-03-20T02:22:32.794Z,4.47
2023-03-20T02:25:15.949Z,5.33
2023-03-20T02:28:13.395Z,4.47
2023-03-20T02:30:59.938Z,4.73
2023-03-20T02:33:46.665Z,4.20
2023-03-20T02:36:20.297Z,4.53
2023-03-20T02:39:18.792Z,4.53
2023-03-20T02:42:05.566Z,4.75
2023-03-20T02:44:47.197Z,5.17
2023-03-20T02:47:20.328Z,4.83
2023-03-20T02:50:04.423Z,4.90
2023-03-20T02:52:47.215Z,4.50
2023-03-20T02:55:57.664Z,4.80
2023-03-20T02:58:36.880Z,4.73
2023-03-20T03:01:28.350Z,4.80
2023-03-20T03:04:02.358Z,4.70
2023-03-20T03:06:34.900Z,5.37
2023-03-20T03:09:12.577Z,4.67
2023-03-20T03:11:48.472Z,4.90
2023-03-20T03:14:44.832Z,4.77
2023-03-20T03:17:18.959Z,5.20
2023-03-20T03:19:50.105Z,5.53
2023-03-20T03:22:19.014Z,5.27
2023-03-20T03:24:52.474Z,4.90
2023-03-20T03:27:33.506Z,4.70
2023-03-20T03:30:07.136Z,4.23
2023-03-20T03:32:41.124Z,4.23
2023-03-20T03:35:16.576Z,4.77
2023-03-20T03:37:59.117Z,4.30
2023-03-20T03:40:32.637Z,4.20
2023-03-20T03:43:32.192Z,4.70
2023-03-20T03:46:07.635Z,4.37
2023-03-20T03:48:44.878Z,3.93
2023-03-20T03:51:16.763Z,4.45
2023-03-20T03:54:21.228Z,3.60
2023-03-20T03:57:12.462Z,3.27
2023-03-20T03:59:44.367Z,3.83
2023-03-20T04:02:12.913Z,4.00
2023-03-20T04:04:45.589Z,4.20
2023-03-20T04:07:14.900Z,4.03
2023-03-20T04:09:42.540Z,3.57
2023-03-20T04:12:47.552Z,3.20
2023-03-20T04:15:17.065Z,3.73
2023-03-20T04:17:52.175Z,3.40
2023-03-20T04:20:20.033Z,3.90
2023-03-20T04:22:48.761Z,4.13
2023-03-20T04:25:24.253Z,3.80
2023-03-20T04:27:54.362Z,4.22
2023-03-20T04:30:48.341Z,4.17
2023-03-20T04:33:24.173Z,4.53
2023-03-20T04:36:21.671Z,4.50
2023-03-20T04:38:51.098Z,4.73
2023-03-20T04:41:21.224Z,4.23
2023-03-20T04:43:53.420Z,4.60
2023-03-20T04:46:21.181Z,4.03
2023-03-20T04:48:48.772Z,4.20
2023-03-20T04:51:17.234Z,3.10
2023-03-20T04:53:53.521Z,3.93
2023-03-20T04:56:21.177Z,3.40
2023-03-20T04:58:50.695Z,3.37
2023-03-20T05:01:22.533Z,3.70
2023-03-20T05:03:50.505Z,2.73
2023-03-20T05:06:18.316Z,3.50
2023-03-20T05:08:46.355Z,3.27
2023-03-20T05:11:14.003Z,3.60
2023-03-20T05:14:07.354Z,3.37
2023-03-20T05:16:50.085Z,3.17
2023-03-20T05:19:47.611Z,2.77
2023-03-20T05:22:27.371Z,2.90
2023-03-20T05:25:10.847Z,3.23
2023-03-20T05:28:04.883Z,3.30
2023-03-20T05:30:46.576Z,2.77
2023-03-20T05:33:33.307Z,4.70
2023-03-20T05:36:23.838Z,3.43
2023-03-20T05:38:54.491Z,3.17
2023-03-20T05:41:57.282Z,3.20
2023-03-20T05:44:43.850Z,3.25
2023-03-20T05:47:33.787Z,3.17
2023-03-20T05:50:23.678Z,2.83
2023-03-20T05:53:03.610Z,2.77
2023-03-20T05:55:52.500Z,3.80
2023-03-20T05:58:38.565Z,3.83
2023-03-20T06:01:30.331Z,3.30
2023-03-20T06:04:14.639Z,3.93
2023-03-20T06:07:07.828Z,3.73
2023-03-20T06:09:36.845Z,8.47
2023-03-20T06:12:10.000Z,6.03
2023-03-20T06:14:38.305Z,4.80
2023-03-20T06:17:08.965Z,3.83
2023-03-20T06:19:36.979Z,4.43
2023-03-20T06:22:04.949Z,3.70
2023-03-20T06:24:33.921Z,3.33
2023-03-20T06:27:01.721Z,3.53
2023-03-20T06:29:29.917Z,3.60
2023-03-20T06:32:09.052Z,4.67
2023-03-20T06:34:37.657Z,4.50
2023-03-20T06:37:05.318Z,4.77
2023-03-20T06:39:33.561Z,4.80
2023-03-20T06:42:01.610Z,4.23
2023-03-20T06:44:29.436Z,4.50
2023-03-20T06:47:13.851Z,3.50
2023-03-20T06:49:42.538Z,3.97
2023-03-20T06:52:17.383Z,4.00
2023-03-20T06:54:51.292Z,4.10
2023-03-20T06:57:21.072Z,4.37
2023-03-20T06:59:48.634Z,3.63
2023-03-20T07:02:17.043Z,3.90
2023-03-20T07:04:44.943Z,4.00
2023-03-20T07:07:12.794Z,4.20
2023-03-20T07:09:41.295Z,4.88
2023-03-20T07:12:16.966Z,5.05
2023-03-20T07:14:44.953Z,4.15
2023-03-20T07:17:18.088Z,3.80
2023-03-20T07:19:45.792Z,4.18
2023-03-20T07:22:32.136Z,5.18
2023-03-20T07:25:35.466Z,3.63
2023-03-20T07:28:10.095Z,5.18
2023-03-20T07:30:42.199Z,3.78
2023-03-20T07:33:11.008Z,3.42
2023-03-20T07:35:40.018Z,3.55
2023-03-20T07:38:09.378Z,3.75
2023-03-20T07:43:17.212Z,3.53
2023-03-20T07:46:04.869Z,3.67
2023-03-20T07:48:36.323Z,3.53
2023-03-20T07:51:04.555Z,3.78
2023-03-20T07:53:33.430Z,3.35
2023-03-20T07:56:01.512Z,3.33
2023-03-20T07:58:29.178Z,3.20
2023-03-20T08:00:58.930Z,3.10
2023-03-20T08:04:06.682Z,3.45
2023-03-20T08:14:52.819Z,3.22
2023-03-20T08:18:53.334Z,3.15
2023-03-20T08:23:12.925Z,3.30
2023-03-20T08:27:01.351Z,4.13
2023-03-20T08:30:53.143Z,4.13
2023-03-20T08:34:09.940Z,3.50
2023-03-20T08:36:37.660Z,3.75
2023-03-20T08:39:07.069Z,5.00
2023-03-20T08:41:38.954Z,4.00
2023-03-20T08:44:06.763Z,4.45
2023-03-20T08:46:34.976Z,3.47
2023-03-20T08:49:05.630Z,3.45
2023-03-20T08:51:33.458Z,3.60
2023-03-20T08:54:03.278Z,3.17
2023-03-20T08:56:30.863Z,3.38
2023-03-20T08:58:58.544Z,4.28
2023-03-20T09:01:35.343Z,3.47
2023-03-20T09:04:06.202Z,3.83
2023-03-20T09:06:36.894Z,3.85
2023-03-20T09:09:04.577Z,3.97
2023-03-20T09:11:34.264Z,3.42
2023-03-20T09:14:01.857Z,3.72
2023-03-20T09:16:29.525Z,3.97
2023-03-20T09:18:57.357Z,3.70
2023-03-20T09:21:25.720Z,3.55
2023-03-20T09:23:53.564Z,3.38
2023-03-20T09:26:21.169Z,3.97
2023-03-20T09:28:49.273Z,3.53
2023-03-20T09:31:16.874Z,3.58
2023-03-20T09:33:44.587Z,3.08
2023-03-20T09:36:12.578Z,3.10
2023-03-20T09:38:42.191Z,3.95
2023-03-20T09:41:20.175Z,3.47
2023-03-20T09:43:53.519Z,3.90
2023-03-20T09:46:49.728Z,4.15
2023-03-20T09:49:23.449Z,3.92
2023-03-20T09:52:00.163Z,4.63
2023-03-20T09:54:53.939Z,4.20
2023-03-20T09:57:39.249Z,4.78
2023-03-20T10:00:20.285Z,4.93
2023-03-20T10:02:59.294Z,4.90
2023-03-20T10:05:45.763Z,4.80
2023-03-20T10:08:19.005Z,4.68
2023-03-20T10:10:52.191Z,4.47
2023-03-20T10:13:58.546Z,4.80
2023-03-20T10:16:46.923Z,4.63
2023-03-20T10:19:29.561Z,4.00
2023-03-20T10:22:07.759Z,4.30
2023-03-20T10:24:44.956Z,3.83
2023-03-20T10:27:27.580Z,3.83
2023-03-20T10:30:26.217Z,4.32
2023-03-20T10:41:23.107Z,4.18
2023-03-20T10:52:51.394Z,4.40
2023-03-20T10:55:24.317Z,4.28
2023-03-20T10:58:10.137Z,3.65
2023-03-20T11:00:38.449Z,3.83
2023-03-20T11:03:10.567Z,4.32
2023-03-20T11:05:39.553Z,4.18
2023-03-20T11:08:16.477Z,4.03
2023-03-20T11:10:44.593Z,4.10
2023-03-20T11:13:30.302Z,3.75
2023-03-20T11:16:09.467Z,4.30
2023-03-20T11:18:37.451Z,4.15
2023-03-20T11:21:05.502Z,4.45
2023-03-20T11:23:35.417Z,4.80
2023-03-20T11:26:08.239Z,4.72
2023-03-20T11:28:38.473Z,4.10
2023-03-20T11:31:13.786Z,4.07
2023-03-20T11:33:50.944Z,4.00
2023-03-20T11:36:31.311Z,4.05
2023-03-20T11:39:14.856Z,4.68
2023-03-20T11:41:45.345Z,4.22
2023-03-20T11:45:05.920Z,4.50
2023-03-20T11:52:34.049Z,3.90
2023-03-20T12:03:50.787Z,3.60
2023-03-20T12:07:45.139Z,3.72
2023-03-20T12:19:13.714Z,3.88
2023-03-20T12:22:49.102Z,3.65
2023-03-20T12:26:15.732Z,4.25
2023-03-20T12:34:09.477Z,3.85
2023-03-20T12:37:24.126Z,3.70
2023-03-20T12:39:59.394Z,3.50
2023-03-20T12:42:45.975Z,3.80
2023-03-20T12:45:38.385Z,3.60
2023-03-20T12:48:42.800Z,3.38
2023-03-20T12:56:29.129Z,3.50
2023-03-20T12:59:46.170Z,3.30
2023-03-20T13:02:56.909Z,3.50
2023-03-20T13:06:33.090Z,3.35
2023-03-20T13:13:29.103Z,3.63
2023-03-20T13:16:16.871Z,3.75
2023-03-20T13:19:15.124Z,3.35
2023-03-20T13:22:23.784Z,3.30
2023-03-20T13:25:01.792Z,3.25
2023-03-20T13:27:37.359Z,3.85
2023-03-20T13:30:29.175Z,3.28
2023-03-20T13:33:37.525Z,3.58
2023-03-20T13:36:25.524Z,3.40
2023-03-20T13:39:01.639Z,3.83
2023-03-20T13:41:29.768Z,3.20
2023-03-20T13:44:03.688Z,3.28
2023-03-20T13:46:36.943Z,3.60
2023-03-20T13:49:21.160Z,3.45
2023-03-20T13:52:23.617Z,3.40
2023-03-20T13:54:58.962Z,3.50
2023-03-20T13:58:25.576Z,3.17
2023-03-20T14:05:57.214Z,2.95
2023-03-20T14:09:05.126Z,3.50
2023-03-20T14:12:31.860Z,3.40
2023-03-20T14:39:28.072Z,4.43
2023-03-20T14:43:12.959Z,4.20
2023-03-20T14:45:51.581Z,4.00
2023-03-20T14:48:33.974Z,4.07
2023-03-20T14:51:07.300Z,3.70
2023-03-20T14:53:35.138Z,3.60
2023-03-20T14:56:15.870Z,3.65
2023-03-20T14:58:49.297Z,3.47
2023-03-20T15:01:23.097Z,3.40
2023-03-20T15:04:39.596Z,3.60
2023-03-20T15:07:24.424Z,3.40
2023-03-20T15:09:56.731Z,3.10
2023-03-20T15:12:27.780Z,2.83
2023-03-20T15:15:00.932Z,2.90
2023-03-20T15:17:41.256Z,3.43
2023-03-20T15:20:19.333Z,3.50
2023-03-20T15:22:58.949Z,3.03
2023-03-20T15:25:33.849Z,3.63
2023-03-20T15:28:05.934Z,3.20
2023-03-20T15:30:38.117Z,3.40
2023-03-20T15:33:07.627Z,3.10
2023-03-20T15:35:35.314Z,3.00
2023-03-20T15:38:08.111Z,3.37
2023-03-20T15:40:50.042Z,3.90
2023-03-20T15:43:25.450Z,2.70
2023-03-20T15:46:17.296Z,3.30
2023-03-20T15:48:51.038Z,2.87
2023-03-20T15:51:21.494Z,3.07
2023-03-20T15:53:49.356Z,3.20
2023-03-20T15:56:20.340Z,2.73
2023-03-20T15:58:52.617Z,3.10
2023-03-20T16:01:23.144Z,3.07
2023-03-20T16:04:10.971Z,3.03
2023-03-20T16:06:46.593Z,3.50
2023-03-20T16:09:16.818Z,3.40
2023-03-20T16:11:47.457Z,3.60
2023-03-20T16:14:26.458Z,3.03
2023-03-20T16:16:57.351Z,3.10
2023-03-20T16:19:27.083Z,3.70
2023-03-20T16:22:01.329Z,2.87
2023-03-20T16:24:34.541Z,3.10
2023-03-20T16:27:07.277Z,2.87
2023-03-20T16:29:36.669Z,2.90
2023-03-20T16:32:07.771Z,3.20
2023-03-20T16:34:39.729Z,3.40
2023-03-20T16:37:23.470Z,3.17
2023-03-20T16:40:12.920Z,3.00
2023-03-20T16:42:40.894Z,3.07
2023-03-20T16:45:29.911Z,2.80
2023-03-20T16:48:33.149Z,2.90
2023-03-20T16:51:06.971Z,2.87
2023-03-20T17:07:09.706Z,3.10
2023-03-20T17:10:30.134Z,2.95
2023-03-20T17:12:57.895Z,4.07
2023-03-20T17:15:40.766Z,3.23
2023-03-20T17:19:01.048Z,3.73
2023-03-20T17:33:54.175Z,3.23
2023-03-20T17:37:34.218Z,3.40
2023-03-20T17:47:46.772Z,3.73
2023-03-20T17:50:57.742Z,3.93
2023-03-20T17:54:11.849Z,4.07
2023-03-20T17:56:42.337Z,3.80
2023-03-20T17:59:31.527Z,4.27
2023-03-20T18:02:45.279Z,4.20
2023-03-20T18:05:19.431Z,4.20
2023-03-20T18:07:47.161Z,3.27
2023-03-20T18:10:32.264Z,3.90
2023-03-20T18:13:00.813Z,4.00
2023-03-20T18:15:28.426Z,3.00
2023-03-20T18:17:56.072Z,3.43
2023-03-20T18:20:31.540Z,3.43
2023-03-20T18:22:59.287Z,3.00
2023-03-20T18:25:27.620Z,3.40
2023-03-20T18:27:57.017Z,3.47
2023-03-20T18:30:38.430Z,2.80
2023-03-20T18:33:06.700Z,3.43
2023-03-20T18:35:37.582Z,3.70
2023-03-20T18:38:06.693Z,2.93
2023-03-20T18:40:37.670Z,3.17
2023-03-20T18:43:07.782Z,3.07
2023-03-20T18:45:37.325Z,3.10
2023-03-20T18:48:07.781Z,2.93
2023-03-20T18:50:41.119Z,2.87
2023-03-20T18:53:12.167Z,3.13
2023-03-20T18:55:41.281Z,3.30
2023-03-20T18:58:21.431Z,3.57
2023-03-20T19:00:50.450Z,3.50
2023-03-20T19:03:18.849Z,3.20
2023-03-20T19:05:48.866Z,3.20
2023-03-20T19:08:17.510Z,3.67
2023-03-20T19:10:46.550Z,3.30
2023-03-20T19:13:18.987Z,3.40
2023-03-20T19:15:48.160Z,3.20
2023-03-20T19:18:28.049Z,3.80
2023-03-20T19:20:59.552Z,3.40
2023-03-20T19:23:31.843Z,3.43
2023-03-20T19:25:59.591Z,3.27
2023-03-20T19:28:39.220Z,3.07
2023-03-20T19:31:09.737Z,3.60
2023-03-20T19:33:39.312Z,3.87
2023-03-20T19:36:19.159Z,3.50
2023-03-20T19:38:46.946Z,3.37
2023-03-20T19:41:15.063Z,3.60
2023-03-20T19:43:52.089Z,3.30
2023-03-20T19:46:38.232Z,3.07
2023-03-20T19:49:17.354Z,3.20
2023-03-20T19:51:46.212Z,3.07
2023-03-20T19:54:13.819Z,3.93
2023-03-20T19:56:41.596Z,3.80
2023-03-20T19:59:09.143Z,3.70
2023-03-20T20:01:39.104Z,4.10
2023-03-20T20:04:06.867Z,3.60
2023-03-20T20:06:34.396Z,4.30
2023-03-20T20:09:03.179Z,3.17
2023-03-20T20:11:30.671Z,3.73
2023-03-20T20:14:06.713Z,3.43
2023-03-20T20:16:36.861Z,3.05
2023-03-20T20:19:05.088Z,3.97
2023-03-20T20:24:20.830Z,3.42
2023-03-20T20:26:55.217Z,3.90
2023-03-20T20:29:28.240Z,3.73
2023-03-20T20:31:55.845Z,3.60
2023-03-20T20:39:59.490Z,3.40
2023-03-20T20:42:27.383Z,3.70
2023-03-20T20:44:54.966Z,4.00
2023-03-20T20:47:22.615Z,3.77
2023-03-20T20:49:50.132Z,3.97
2023-03-20T20:52:18.334Z,3.90
2023-03-20T20:54:45.903Z,4.07
2023-03-20T20:57:14.430Z,4.30
2023-03-20T20:59:42.008Z,3.67
2023-03-20T21:02:11.574Z,3.40
2023-03-20T21:04:41.205Z,3.73
2023-03-20T21:07:13.186Z,3.93
2023-03-20T21:09:41.531Z,3.50
2023-03-20T21:12:10.725Z,3.33
2023-03-20T21:14:40.721Z,3.50
2023-03-20T21:17:09.860Z,3.43
2023-03-20T21:19:40.360Z,3.87
2023-03-20T21:22:11.297Z,3.80
2023-03-20T21:24:39.864Z,4.20
2023-03-20T21:27:11.630Z,3.03
2023-03-20T21:29:39.775Z,3.50
2023-03-20T21:32:09.587Z,3.23
2023-03-20T21:34:38.212Z,3.30
2023-03-20T21:38:04.035Z,3.20
2023-03-20T21:39:56.506Z,3.05
2023-03-20T21:42:23.977Z,3.27
2023-03-20T21:45:46.363Z,3.17
2023-03-20T21:51:09.703Z,3.47
2023-03-20T21:59:36.780Z,3.37
2023-03-20T22:05:18.944Z,3.70
2023-03-20T22:07:51.984Z,2.90
2023-03-20T22:11:18.186Z,3.17
2023-03-20T22:16:17.133Z,3.47
2023-03-20T22:21:52.180Z,3.20
2023-03-20T22:24:45.248Z,3.20
2023-03-20T22:33:03.587Z,3.00
2023-03-20T22:36:06.896Z,3.00
2023-03-20T22:38:52.238Z,3.17
2023-03-20T22:41:49.311Z,2.95
2023-03-20T22:44:34.043Z,6.13
2023-03-20T22:46:44.770Z,3.63
2023-03-20T22:49:13.273Z,3.57
2023-03-20T22:51:50.723Z,3.37
2023-03-20T22:54:28.441Z,3.25
2023-03-20T22:56:55.899Z,3.30
2023-03-20T22:59:23.443Z,3.07
2023-03-20T23:01:51.231Z,3.57
2023-03-20T23:04:18.845Z,3.10
2023-03-20T23:06:46.472Z,2.80
2023-03-20T23:09:15.746Z,2.80
2023-03-20T23:11:43.972Z,3.03
2023-03-20T23:14:20.557Z,2.63
2023-03-20T23:16:50.713Z,2.90
2023-03-20T23:19:18.429Z,2.83
2023-03-20T23:21:48.111Z,2.67
2023-03-20T23:24:16.953Z,3.33
2023-03-20T23:26:44.465Z,2.67
2023-03-20T23:29:11.879Z,2.93
2023-03-20T23:31:39.454Z,3.07
2023-03-20T23:34:06.891Z,3.23
2023-03-20T23:36:37.340Z,3.13
2023-03-20T23:39:06.556Z,2.97
2023-03-20T23:42:07.900Z,3.27
2023-03-20T23:44:21.920Z,2.75
2023-03-20T23:46:49.558Z,2.90
2023-03-20T23:49:17.299Z,2.77
2023-03-20T23:51:44.852Z,3.03
2023-03-20T23:54:12.855Z,3.07
2023-03-20T23:56:40.401Z,2.40
2023-03-20T23:59:20.708Z,2.83
